Toronto, Ohio
Current Conditions -  °F | °C
As of 9:53 PM on Monday 22 Dec 2014 (Local Time) from KHLG Reporting Station
Clear Clear  
Wind Chill: 32°   Ceiling: Unl
Heat Index: 39°   Visibility: 10mi
Dew Point: 32°   Wind: 12mph
Humidity: 76%   Direction: 100°E
Pressure: 29.91"   Gusts: NA
Location:  40.46°N, 80.61°W
Report Text: KHLG 230253Z 10010KT 10SM CLR 04/00 A2991 RMK AO2 SLP140 T00390000 56006
Loading
Personal Weather Stations






























Interactive Weather Map New forecast layout! Learn more

10-Day Weather Forecast

Advertisements
Track Severe Weather on mobile